sensor_id;sensor_type;location;lat;lon;timestamp;noise_LAeq;noise_LA_min;noise_LA_max;noise_LA01;noise_LA95
72686;Laerm;61365;52.162;4.500;2023-02-28T00:01:25;46.92;36.76;57.18;;
72686;Laerm;61365;52.162;4.500;2023-02-28T00:03:51;46.96;37.11;57.68;;
72686;Laerm;61365;52.162;4.500;2023-02-28T00:06:18;46.87;36.97;57.85;;
72686;Laerm;61365;52.162;4.500;2023-02-28T00:08:44;46.79;37.42;57.40;;
72686;Laerm;61365;52.162;4.500;2023-02-28T00:11:14;46.90;36.75;57.33;;
72686;Laerm;61365;52.162;4.500;2023-02-28T00:13:44;46.85;36.88;58.56;;
72686;Laerm;61365;52.162;4.500;2023-02-28T00:16:19;46.96;36.79;57.15;;
72686;Laerm;61365;52.162;4.500;2023-02-28T00:18:46;46.86;37.04;57.10;;
72686;Laerm;61365;52.162;4.500;2023-02-28T00:21:13;46.92;36.97;57.10;;
72686;Laerm;61365;52.162;4.500;2023-02-28T00:23:40;46.82;37.65;56.43;;
72686;Laerm;61365;52.162;4.500;2023-02-28T00:26:07;46.84;36.15;57.59;;
72686;Laerm;61365;52.162;4.500;2023-02-28T00:28:33;46.83;37.33;58.22;;
72686;Laerm;61365;52.162;4.500;2023-02-28T00:30:59;46.94;37.34;56.85;;
72686;Laerm;61365;52.162;4.500;2023-02-28T00:33:27;46.98;36.72;58.63;;
72686;Laerm;61365;52.162;4.500;2023-02-28T00:36:09;46.94;36.85;57.55;;
72686;Laerm;61365;52.162;4.500;2023-02-28T00:38:38;46.85;37.38;58.63;;
72686;Laerm;61365;52.162;4.500;2023-02-28T00:41:06;46.90;37.15;57.08;;
72686;Laerm;61365;52.162;4.500;2023-02-28T00:43:35;47.06;36.52;57.94;;
72686;Laerm;61365;52.162;4.500;2023-02-28T00:46:03;46.84;36.82;57.47;;
72686;Laerm;61365;52.162;4.500;2023-02-28T00:48:29;46.89;36.84;56.91;;
72686;Laerm;61365;52.162;4.500;2023-02-28T00:50:56;46.88;36.86;57.31;;
72686;Laerm;61365;52.162;4.500;2023-02-28T00:53:22;46.76;36.60;58.11;;
72686;Laerm;61365;52.162;4.500;2023-02-28T00:55:50;47.12;37.29;56.73;;
72686;Laerm;61365;52.162;4.500;2023-02-28T00:58:17;46.74;37.34;57.32;;
72686;Laerm;61365;52.162;4.500;2023-02-28T01:00:44;46.73;37.07;57.90;;
72686;Laerm;61365;52.162;4.500;2023-02-28T01:03:19;46.97;36.35;57.67;;
72686;Laerm;61365;52.162;4.500;2023-02-28T01:05:47;46.91;36.97;56.60;;
72686;Laerm;61365;52.162;4.500;2023-02-28T01:08:14;46.74;37.01;58.00;;
72686;Laerm;61365;52.162;4.500;2023-02-28T01:10:41;46.80;36.64;57.61;;
72686;Laerm;61365;52.162;4.500;2023-02-28T01:13:08;47.06;36.64;56.89;;
72686;Laerm;61365;52.162;4.500;2023-02-28T01:15:34;46.88;37.43;56.81;;
72686;Laerm;61365;52.162;4.500;2023-02-28T01:18:01;46.73;37.12;57.49;;
72686;Laerm;61365;52.162;4.500;2023-02-28T01:20:27;46.91;36.71;58.09;;
72686;Laerm;61365;52.162;4.500;2023-02-28T01:22:54;46.80;37.53;57.14;;
72686;Laerm;61365;52.162;4.500;2023-02-28T01:25:20;46.93;36.98;57.79;;
72686;Laerm;61365;52.162;4.500;2023-02-28T01:27:47;46.98;37.18;59.09;;
72686;Laerm;61365;52.162;4.500;2023-02-28T01:30:13;46.89;37.00;57.28;;
72686;Laerm;61365;52.162;4.500;2023-02-28T01:32:40;46.83;37.43;57.32;;
72686;Laerm;61365;52.162;4.500;2023-02-28T01:35:07;46.70;36.88;56.98;;
72686;Laerm;61365;52.162;4.500;2023-02-28T01:37:33;46.74;36.97;57.26;;
72686;Laerm;61365;52.162;4.500;2023-02-28T01:39:59;46.90;36.81;56.34;;
72686;Laerm;61365;52.162;4.500;2023-02-28T01:42:26;46.69;37.10;56.58;;
72686;Laerm;61365;52.162;4.500;2023-02-28T01:47:38;46.70;36.92;57.23;;
72686;Laerm;61365;52.162;4.500;2023-02-28T01:50:14;46.85;37.28;56.71;;
72686;Laerm;61365;52.162;4.500;2023-02-28T01:52:42;45.78;36.69;57.49;;
72686;Laerm;61365;52.162;4.500;2023-02-28T01:55:12;45.39;37.35;58.37;;
72686;Laerm;61365;52.162;4.500;2023-02-28T01:57:50;45.50;37.12;58.43;;
72686;Laerm;61365;52.162;4.500;2023-02-28T02:00:23;45.49;36.80;58.97;;
72686;Laerm;61365;52.162;4.500;2023-02-28T02:02:55;45.59;37.02;57.81;;
72686;Laerm;61365;52.162;4.500;2023-02-28T02:05:28;45.63;37.15;58.40;;
72686;Laerm;61365;52.162;4.500;2023-02-28T02:08:12;46.05;35.91;57.29;;
72686;Laerm;61365;52.162;4.500;2023-02-28T02:10:48;46.82;37.50;56.46;;
72686;Laerm;61365;52.162;4.500;2023-02-28T02:25:12;47.03;37.36;56.83;;
72686;Laerm;61365;52.162;4.500;2023-02-28T02:31:12;47.10;37.09;60.72;;
72686;Laerm;61365;52.162;4.500;2023-02-28T02:37:14;46.96;36.38;57.41;;
72686;Laerm;61365;52.162;4.500;2023-02-28T02:40:02;46.91;37.23;57.39;;
72686;Laerm;61365;52.162;4.500;2023-02-28T02:42:58;46.90;36.52;56.70;;
72686;Laerm;61365;52.162;4.500;2023-02-28T02:45:45;46.82;36.96;57.82;;
72686;Laerm;61365;52.162;4.500;2023-02-28T02:48:17;47.04;36.56;57.40;;
72686;Laerm;61365;52.162;4.500;2023-02-28T02:50:53;46.85;36.42;61.46;;
72686;Laerm;61365;52.162;4.500;2023-02-28T02:53:28;46.89;36.79;57.47;;
72686;Laerm;61365;52.162;4.500;2023-02-28T02:56:00;46.77;36.94;56.26;;
72686;Laerm;61365;52.162;4.500;2023-02-28T02:58:35;46.75;37.01;56.88;;
72686;Laerm;61365;52.162;4.500;2023-02-28T03:01:14;46.76;37.50;57.55;;
72686;Laerm;61365;52.162;4.500;2023-02-28T03:03:41;46.81;36.93;57.75;;
72686;Laerm;61365;52.162;4.500;2023-02-28T03:06:07;46.91;37.49;57.52;;
72686;Laerm;61365;52.162;4.500;2023-02-28T03:08:37;46.99;36.95;57.42;;
72686;Laerm;61365;52.162;4.500;2023-02-28T03:11:12;46.83;37.10;57.68;;
72686;Laerm;61365;52.162;4.500;2023-02-28T03:20:12;47.00;36.33;57.40;;
72686;Laerm;61365;52.162;4.500;2023-02-28T03:30:55;46.94;37.11;57.41;;
72686;Laerm;61365;52.162;4.500;2023-02-28T03:33:33;46.79;36.97;57.07;;
72686;Laerm;61365;52.162;4.500;2023-02-28T03:36:13;46.98;36.59;59.22;;
72686;Laerm;61365;52.162;4.500;2023-02-28T03:38:54;46.63;37.10;56.98;;
72686;Laerm;61365;52.162;4.500;2023-02-28T03:41:38;46.83;37.11;57.27;;
72686;Laerm;61365;52.162;4.500;2023-02-28T03:44:14;46.84;37.26;57.16;;
72686;Laerm;61365;52.162;4.500;2023-02-28T03:46:56;46.78;37.24;57.97;;
72686;Laerm;61365;52.162;4.500;2023-02-28T03:49:30;46.80;36.51;56.79;;
72686;Laerm;61365;52.162;4.500;2023-02-28T03:52:01;46.69;37.33;57.36;;
72686;Laerm;61365;52.162;4.500;2023-02-28T03:54:35;46.71;37.17;57.74;;
72686;Laerm;61365;52.162;4.500;2023-02-28T03:57:37;46.92;35.06;59.13;;
72686;Laerm;61365;52.162;4.500;2023-02-28T04:00:14;46.95;36.23;56.44;;
72686;Laerm;61365;52.162;4.500;2023-02-28T04:02:43;47.00;36.73;62.53;;
72686;Laerm;61365;52.162;4.500;2023-02-28T04:05:10;45.66;37.17;58.03;;
72686;Laerm;61365;52.162;4.500;2023-02-28T04:07:37;45.49;36.87;58.15;;
72686;Laerm;61365;52.162;4.500;2023-02-28T04:10:05;45.45;36.34;57.78;;
72686;Laerm;61365;52.162;4.500;2023-02-28T04:12:31;45.61;37.48;60.50;;
72686;Laerm;61365;52.162;4.500;2023-02-28T04:14:57;45.53;36.43;59.60;;
72686;Laerm;61365;52.162;4.500;2023-02-28T04:17:24;45.58;35.69;63.90;;
72686;Laerm;61365;52.162;4.500;2023-02-28T04:19:50;45.40;36.33;60.98;;
72686;Laerm;61365;52.162;4.500;2023-02-28T04:22:19;45.68;35.26;63.27;;
72686;Laerm;61365;52.162;4.500;2023-02-28T04:24:45;46.40;37.00;57.62;;
72686;Laerm;61365;52.162;4.500;2023-02-28T04:27:12;46.88;37.39;56.93;;
72686;Laerm;61365;52.162;4.500;2023-02-28T04:29:38;46.81;36.49;56.70;;
72686;Laerm;61365;52.162;4.500;2023-02-28T04:32:05;46.95;36.27;58.68;;
72686;Laerm;61365;52.162;4.500;2023-02-28T04:34:32;46.90;36.94;58.88;;
72686;Laerm;61365;52.162;4.500;2023-02-28T04:36:59;47.10;37.32;59.95;;
72686;Laerm;61365;52.162;4.500;2023-02-28T04:39:26;46.91;36.90;57.44;;
72686;Laerm;61365;52.162;4.500;2023-02-28T04:41:52;46.93;37.11;56.96;;
72686;Laerm;61365;52.162;4.500;2023-02-28T04:44:19;47.10;37.05;61.20;;
72686;Laerm;61365;52.162;4.500;2023-02-28T04:46:48;46.78;34.53;62.57;;
72686;Laerm;61365;52.162;4.500;2023-02-28T04:49:15;46.84;36.95;57.72;;
72686;Laerm;61365;52.162;4.500;2023-02-28T04:51:42;46.83;37.02;56.97;;
72686;Laerm;61365;52.162;4.500;2023-02-28T04:54:08;46.96;36.87;58.53;;
72686;Laerm;61365;52.162;4.500;2023-02-28T04:56:34;46.81;36.76;57.66;;
72686;Laerm;61365;52.162;4.500;2023-02-28T04:59:01;46.90;37.54;58.00;;
72686;Laerm;61365;52.162;4.500;2023-02-28T05:01:31;47.04;36.08;56.96;;
72686;Laerm;61365;52.162;4.500;2023-02-28T05:04:01;46.92;34.15;61.82;;
72686;Laerm;61365;52.162;4.500;2023-02-28T05:06:31;46.85;36.76;57.87;;
72686;Laerm;61365;52.162;4.500;2023-02-28T05:08:59;47.11;37.42;59.92;;
72686;Laerm;61365;52.162;4.500;2023-02-28T05:11:28;47.05;36.51;57.04;;
72686;Laerm;61365;52.162;4.500;2023-02-28T05:13:55;46.88;36.88;57.04;;
72686;Laerm;61365;52.162;4.500;2023-02-28T05:16:22;46.88;37.08;57.67;;
72686;Laerm;61365;52.162;4.500;2023-02-28T05:18:48;46.92;36.44;57.34;;
72686;Laerm;61365;52.162;4.500;2023-02-28T05:23:56;47.06;36.82;57.45;;
72686;Laerm;61365;52.162;4.500;2023-02-28T05:26:24;46.82;36.79;57.42;;
72686;Laerm;61365;52.162;4.500;2023-02-28T05:28:50;46.70;37.22;57.38;;
72686;Laerm;61365;52.162;4.500;2023-02-28T05:31:17;46.73;37.10;56.87;;
72686;Laerm;61365;52.162;4.500;2023-02-28T05:33:43;46.85;36.81;57.18;;
72686;Laerm;61365;52.162;4.500;2023-02-28T05:36:10;46.85;37.40;57.65;;
72686;Laerm;61365;52.162;4.500;2023-02-28T05:38:36;46.92;36.85;56.71;;
72686;Laerm;61365;52.162;4.500;2023-02-28T05:41:11;46.87;37.30;57.77;;
72686;Laerm;61365;52.162;4.500;2023-02-28T05:43:38;46.91;36.95;57.94;;
72686;Laerm;61365;52.162;4.500;2023-02-28T05:46:10;46.82;36.85;56.60;;
72686;Laerm;61365;52.162;4.500;2023-02-28T05:48:38;46.90;36.73;60.84;;
72686;Laerm;61365;52.162;4.500;2023-02-28T05:51:06;46.92;37.08;56.52;;
72686;Laerm;61365;52.162;4.500;2023-02-28T05:53:35;46.84;36.99;55.98;;
72686;Laerm;61365;52.162;4.500;2023-02-28T05:56:02;46.70;37.40;57.25;;
72686;Laerm;61365;52.162;4.500;2023-02-28T05:58:28;46.86;37.56;57.59;;
72686;Laerm;61365;52.162;4.500;2023-02-28T06:00:58;47.05;37.03;58.20;;
72686;Laerm;61365;52.162;4.500;2023-02-28T06:03:26;46.84;36.99;58.05;;
72686;Laerm;61365;52.162;4.500;2023-02-28T06:05:53;47.00;36.58;56.76;;
72686;Laerm;61365;52.162;4.500;2023-02-28T06:08:20;47.09;37.07;56.83;;
72686;Laerm;61365;52.162;4.500;2023-02-28T06:10:46;46.91;36.77;56.87;;
72686;Laerm;61365;52.162;4.500;2023-02-28T06:13:13;46.86;37.28;56.61;;
72686;Laerm;61365;52.162;4.500;2023-02-28T06:15:39;46.99;37.05;57.02;;
72686;Laerm;61365;52.162;4.500;2023-02-28T06:18:06;46.95;36.53;57.13;;
72686;Laerm;61365;52.162;4.500;2023-02-28T06:20:35;46.49;37.32;57.12;;
72686;Laerm;61365;52.162;4.500;2023-02-28T06:23:02;46.91;37.03;58.00;;
72686;Laerm;61365;52.162;4.500;2023-02-28T06:25:31;46.83;36.97;57.41;;
72686;Laerm;61365;52.162;4.500;2023-02-28T06:27:57;46.97;36.92;58.06;;
72686;Laerm;61365;52.162;4.500;2023-02-28T06:30:24;46.79;37.02;56.93;;
72686;Laerm;61365;52.162;4.500;2023-02-28T06:32:53;46.73;37.47;56.89;;
72686;Laerm;61365;52.162;4.500;2023-02-28T06:35:20;46.78;37.12;56.37;;
72686;Laerm;61365;52.162;4.500;2023-02-28T06:37:47;46.84;36.30;57.41;;
72686;Laerm;61365;52.162;4.500;2023-02-28T06:40:14;46.86;37.29;57.14;;
72686;Laerm;61365;52.162;4.500;2023-02-28T06:42:40;46.71;36.95;57.83;;
72686;Laerm;61365;52.162;4.500;2023-02-28T06:45:08;46.57;37.00;58.22;;
72686;Laerm;61365;52.162;4.500;2023-02-28T06:47:37;46.85;37.40;57.26;;
72686;Laerm;61365;52.162;4.500;2023-02-28T06:50:05;45.78;34.98;63.39;;
72686;Laerm;61365;52.162;4.500;2023-02-28T06:52:32;45.57;37.06;58.92;;
72686;Laerm;61365;52.162;4.500;2023-02-28T06:54:58;45.61;36.88;59.72;;
72686;Laerm;61365;52.162;4.500;2023-02-28T06:57:30;45.48;37.22;57.77;;
72686;Laerm;61365;52.162;4.500;2023-02-28T07:00:01;45.69;36.88;63.46;;
72686;Laerm;61365;52.162;4.500;2023-02-28T07:02:29;45.27;36.91;57.82;;
72686;Laerm;61365;52.162;4.500;2023-02-28T07:04:55;45.48;36.83;59.35;;
72686;Laerm;61365;52.162;4.500;2023-02-28T07:07:21;45.38;37.19;58.37;;
72686;Laerm;61365;52.162;4.500;2023-02-28T07:09:48;45.40;36.75;57.78;;
72686;Laerm;61365;52.162;4.500;2023-02-28T07:12:15;45.31;36.74;58.24;;
72686;Laerm;61365;52.162;4.500;2023-02-28T07:14:42;45.34;36.70;57.74;;
72686;Laerm;61365;52.162;4.500;2023-02-28T07:17:10;45.60;36.84;58.21;;
72686;Laerm;61365;52.162;4.500;2023-02-28T07:19:38;45.63;36.65;58.03;;
72686;Laerm;61365;52.162;4.500;2023-02-28T07:22:07;45.73;36.82;60.27;;
72686;Laerm;61365;52.162;4.500;2023-02-28T07:24:33;45.43;37.25;57.99;;
72686;Laerm;61365;52.162;4.500;2023-02-28T07:27:00;45.99;37.04;57.60;;
72686;Laerm;61365;52.162;4.500;2023-02-28T07:29:27;46.88;36.89;57.87;;
72686;Laerm;61365;52.162;4.500;2023-02-28T07:31:53;46.70;37.42;60.41;;
72686;Laerm;61365;52.162;4.500;2023-02-28T07:34:20;46.93;37.44;57.42;;
72686;Laerm;61365;52.162;4.500;2023-02-28T07:36:47;46.68;36.74;57.58;;
72686;Laerm;61365;52.162;4.500;2023-02-28T07:39:13;46.89;37.14;61.02;;
72686;Laerm;61365;52.162;4.500;2023-02-28T07:41:40;46.85;36.98;57.99;;
72686;Laerm;61365;52.162;4.500;2023-02-28T07:44:11;46.91;37.13;57.19;;
72686;Laerm;61365;52.162;4.500;2023-02-28T07:46:38;46.62;37.03;57.39;;
72686;Laerm;61365;52.162;4.500;2023-02-28T07:49:05;46.81;36.96;58.12;;
72686;Laerm;61365;52.162;4.500;2023-02-28T07:51:32;46.85;37.50;57.47;;
72686;Laerm;61365;52.162;4.500;2023-02-28T07:53:59;46.79;37.02;57.52;;
72686;Laerm;61365;52.162;4.500;2023-02-28T07:56:25;46.81;36.08;58.14;;
72686;Laerm;61365;52.162;4.500;2023-02-28T07:58:52;46.79;37.42;59.77;;
72686;Laerm;61365;52.162;4.500;2023-02-28T08:01:19;46.92;37.43;57.58;;
72686;Laerm;61365;52.162;4.500;2023-02-28T08:03:46;46.83;37.47;58.31;;
72686;Laerm;61365;52.162;4.500;2023-02-28T08:06:22;46.77;37.01;57.98;;
72686;Laerm;61365;52.162;4.500;2023-02-28T08:08:49;46.72;35.27;61.98;;
72686;Laerm;61365;52.162;4.500;2023-02-28T08:11:17;46.47;37.13;57.16;;
72686;Laerm;61365;52.162;4.500;2023-02-28T08:13:45;46.80;37.39;57.51;;
72686;Laerm;61365;52.162;4.500;2023-02-28T08:16:13;46.71;37.05;59.58;;
72686;Laerm;61365;52.162;4.500;2023-02-28T08:18:52;46.86;36.81;58.13;;
72686;Laerm;61365;52.162;4.500;2023-02-28T08:21:20;46.91;36.63;58.62;;
72686;Laerm;61365;52.162;4.500;2023-02-28T08:23:48;46.73;36.98;57.74;;
72686;Laerm;61365;52.162;4.500;2023-02-28T08:26:17;46.76;36.72;57.65;;
72686;Laerm;61365;52.162;4.500;2023-02-28T08:28:44;46.76;37.19;57.15;;
72686;Laerm;61365;52.162;4.500;2023-02-28T08:31:13;46.80;37.08;57.98;;
72686;Laerm;61365;52.162;4.500;2023-02-28T08:33:43;46.80;36.91;57.84;;
72686;Laerm;61365;52.162;4.500;2023-02-28T08:36:11;46.98;36.47;59.14;;
72686;Laerm;61365;52.162;4.500;2023-02-28T08:38:38;46.74;36.53;57.39;;
72686;Laerm;61365;52.162;4.500;2023-02-28T08:41:10;46.80;37.63;57.90;;
72686;Laerm;61365;52.162;4.500;2023-02-28T08:43:37;46.83;36.57;56.73;;
72686;Laerm;61365;52.162;4.500;2023-02-28T08:46:05;46.74;36.70;58.52;;
72686;Laerm;61365;52.162;4.500;2023-02-28T08:48:34;46.85;36.70;57.56;;
72686;Laerm;61365;52.162;4.500;2023-02-28T08:51:07;46.83;37.29;57.61;;
72686;Laerm;61365;52.162;4.500;2023-02-28T08:53:36;46.74;36.66;58.16;;
72686;Laerm;61365;52.162;4.500;2023-02-28T08:56:10;46.72;37.35;57.97;;
72686;Laerm;61365;52.162;4.500;2023-02-28T08:58:37;46.70;36.57;57.71;;
72686;Laerm;61365;52.162;4.500;2023-02-28T09:01:15;46.81;37.11;61.98;;
72686;Laerm;61365;52.162;4.500;2023-02-28T09:03:43;46.62;36.76;60.65;;
72686;Laerm;61365;52.162;4.500;2023-02-28T09:06:10;46.74;36.98;57.53;;
72686;Laerm;61365;52.162;4.500;2023-02-28T09:08:37;46.73;36.59;57.38;;
72686;Laerm;61365;52.162;4.500;2023-02-28T09:11:05;46.73;37.12;57.20;;
72686;Laerm;61365;52.162;4.500;2023-02-28T09:13:32;46.99;36.42;57.55;;
72686;Laerm;61365;52.162;4.500;2023-02-28T09:16:01;46.69;36.08;57.15;;
72686;Laerm;61365;52.162;4.500;2023-02-28T09:18:28;46.82;36.81;59.50;;
72686;Laerm;61365;52.162;4.500;2023-02-28T09:20:56;46.80;36.69;57.11;;
72686;Laerm;61365;52.162;4.500;2023-02-28T09:23:24;46.66;36.69;57.78;;
72686;Laerm;61365;52.162;4.500;2023-02-28T09:25:53;47.00;36.45;58.63;;
72686;Laerm;61365;52.162;4.500;2023-02-28T09:28:21;46.93;37.12;57.97;;
72686;Laerm;61365;52.162;4.500;2023-02-28T09:30:52;46.93;37.19;57.81;;
72686;Laerm;61365;52.162;4.500;2023-02-28T09:33:22;46.86;37.26;57.15;;
72686;Laerm;61365;52.162;4.500;2023-02-28T09:35:49;46.89;36.81;56.78;;
72686;Laerm;61365;52.162;4.500;2023-02-28T09:38:17;46.99;37.21;56.86;;
72686;Laerm;61365;52.162;4.500;2023-02-28T09:41:04;46.77;37.25;57.79;;
72686;Laerm;61365;52.162;4.500;2023-02-28T09:43:41;47.00;37.55;58.73;;
72686;Laerm;61365;52.162;4.500;2023-02-28T09:46:29;46.43;36.68;59.20;;
72686;Laerm;61365;52.162;4.500;2023-02-28T09:49:22;45.51;37.40;57.59;;
72686;Laerm;61365;52.162;4.500;2023-02-28T09:52:06;45.59;37.20;57.91;;
72686;Laerm;61365;52.162;4.500;2023-02-28T09:54:36;45.58;37.44;57.86;;
72686;Laerm;61365;52.162;4.500;2023-02-28T10:05:30;46.57;36.93;57.25;;
72686;Laerm;61365;52.162;4.500;2023-02-28T10:08:32;46.89;36.89;57.69;;
72686;Laerm;61365;52.162;4.500;2023-02-28T10:11:07;47.02;37.31;56.66;;
72686;Laerm;61365;52.162;4.500;2023-02-28T10:14:14;46.87;36.81;56.55;;
72686;Laerm;61365;52.162;4.500;2023-02-28T10:16:53;47.00;37.16;58.12;;
72686;Laerm;61365;52.162;4.500;2023-02-28T10:23:02;46.91;36.88;58.17;;
72686;Laerm;61365;52.162;4.500;2023-02-28T10:25:36;47.04;36.88;62.89;;
72686;Laerm;61365;52.162;4.500;2023-02-28T10:28:15;47.02;35.86;59.28;;
72686;Laerm;61365;52.162;4.500;2023-02-28T10:30:51;46.91;37.38;57.37;;
72686;Laerm;61365;52.162;4.500;2023-02-28T10:35:50;46.96;36.68;57.66;;
72686;Laerm;61365;52.162;4.500;2023-02-28T10:38:25;47.08;37.37;57.38;;
72686;Laerm;61365;52.162;4.500;2023-02-28T10:41:15;46.97;36.82;58.29;;
72686;Laerm;61365;52.162;4.500;2023-02-28T10:43:43;46.89;37.34;57.02;;
72686;Laerm;61365;52.162;4.500;2023-02-28T10:46:12;47.04;36.23;56.97;;
72686;Laerm;61365;52.162;4.500;2023-02-28T10:49:02;46.91;36.15;57.25;;
72686;Laerm;61365;52.162;4.500;2023-02-28T10:51:39;47.01;36.07;56.93;;
72686;Laerm;61365;52.162;4.500;2023-02-28T10:54:16;47.02;37.29;57.06;;
72686;Laerm;61365;52.162;4.500;2023-02-28T10:56:44;46.97;37.16;58.08;;
72686;Laerm;61365;52.162;4.500;2023-02-28T10:59:30;46.98;36.84;56.99;;
72686;Laerm;61365;52.162;4.500;2023-02-28T11:01:57;46.87;37.18;59.43;;
72686;Laerm;61365;52.162;4.500;2023-02-28T11:07:22;46.93;37.08;62.10;;
72686;Laerm;61365;52.162;4.500;2023-02-28T11:09:57;46.88;37.69;58.03;;
72686;Laerm;61365;52.162;4.500;2023-02-28T11:12:34;46.95;37.11;61.01;;
72686;Laerm;61365;52.162;4.500;2023-02-28T11:15:28;47.04;35.80;57.78;;
72686;Laerm;61365;52.162;4.500;2023-02-28T11:18:27;46.89;37.01;57.63;;
72686;Laerm;61365;52.162;4.500;2023-02-28T11:20:58;47.18;37.49;56.79;;
72686;Laerm;61365;52.162;4.500;2023-02-28T11:23:29;47.14;36.50;56.62;;
72686;Laerm;61365;52.162;4.500;2023-02-28T11:26:01;46.91;37.01;57.80;;
72686;Laerm;61365;52.162;4.500;2023-02-28T11:28:38;47.04;36.66;58.26;;
72686;Laerm;61365;52.162;4.500;2023-02-28T11:33:51;46.73;36.91;56.87;;
72686;Laerm;61365;52.162;4.500;2023-02-28T11:36:27;46.98;37.19;56.86;;
72686;Laerm;61365;52.162;4.500;2023-02-28T11:38:59;47.03;36.52;59.27;;
72686;Laerm;61365;52.162;4.500;2023-02-28T11:45:25;47.11;36.50;57.72;;
72686;Laerm;61365;52.162;4.500;2023-02-28T12:05:46;47.06;37.02;60.84;;
72686;Laerm;61365;52.162;4.500;2023-02-28T12:08:47;47.01;37.50;57.23;;
72686;Laerm;61365;52.162;4.500;2023-02-28T12:14:16;47.01;36.59;57.27;;
72686;Laerm;61365;52.162;4.500;2023-02-28T12:19:59;46.35;36.88;58.03;;
72686;Laerm;61365;52.162;4.500;2023-02-28T12:28:21;45.66;37.30;58.73;;
72686;Laerm;61365;52.162;4.500;2023-02-28T12:30:59;45.69;36.98;57.66;;
72686;Laerm;61365;52.162;4.500;2023-02-28T12:33:36;46.61;37.14;56.93;;
72686;Laerm;61365;52.162;4.500;2023-02-28T12:36:11;47.13;36.31;60.70;;
72686;Laerm;61365;52.162;4.500;2023-02-28T12:41:36;46.94;37.17;56.30;;
72686;Laerm;61365;52.162;4.500;2023-02-28T12:44:12;47.04;34.69;63.04;;
72686;Laerm;61365;52.162;4.500;2023-02-28T12:46:49;47.00;37.61;56.90;;
72686;Laerm;61365;52.162;4.500;2023-02-28T12:49:29;47.11;37.36;56.22;;
72686;Laerm;61365;52.162;4.500;2023-02-28T12:52:00;46.96;37.14;57.14;;
72686;Laerm;61365;52.162;4.500;2023-02-28T12:54:48;47.07;36.59;56.55;;
72686;Laerm;61365;52.162;4.500;2023-02-28T12:57:45;47.33;36.66;58.04;;
72686;Laerm;61365;52.162;4.500;2023-02-28T13:00:22;47.25;35.89;57.64;;
72686;Laerm;61365;52.162;4.500;2023-02-28T13:03:31;47.31;36.84;56.95;;
72686;Laerm;61365;52.162;4.500;2023-02-28T13:06:25;47.20;36.59;57.11;;
72686;Laerm;61365;52.162;4.500;2023-02-28T13:11:51;47.06;37.03;56.77;;
72686;Laerm;61365;52.162;4.500;2023-02-28T13:14:30;47.01;37.61;59.92;;
72686;Laerm;61365;52.162;4.500;2023-02-28T13:17:10;47.08;36.78;59.32;;
72686;Laerm;61365;52.162;4.500;2023-02-28T13:19:58;47.14;37.44;59.89;;
72686;Laerm;61365;52.162;4.500;2023-02-28T13:24:54;47.16;36.42;56.24;;
72686;Laerm;61365;52.162;4.500;2023-02-28T13:27:24;47.15;36.88;59.14;;
72686;Laerm;61365;52.162;4.500;2023-02-28T13:29:58;47.02;37.58;60.64;;
72686;Laerm;61365;52.162;4.500;2023-02-28T13:39:57;47.01;36.86;56.81;;
72686;Laerm;61365;52.162;4.500;2023-02-28T13:47:48;46.95;37.75;56.88;;
72686;Laerm;61365;52.162;4.500;2023-02-28T13:50:32;47.05;36.65;56.82;;
72686;Laerm;61365;52.162;4.500;2023-02-28T13:58:59;47.34;34.46;56.39;;
72686;Laerm;61365;52.162;4.500;2023-02-28T14:04:54;47.06;37.00;56.33;;
72686;Laerm;61365;52.162;4.500;2023-02-28T14:07:38;47.08;36.22;56.92;;
72686;Laerm;61365;52.162;4.500;2023-02-28T14:10:26;47.06;37.06;56.21;;
72686;Laerm;61365;52.162;4.500;2023-02-28T14:18:29;47.07;36.34;59.79;;
72686;Laerm;61365;52.162;4.500;2023-02-28T14:21:10;46.99;36.88;56.64;;
72686;Laerm;61365;52.162;4.500;2023-02-28T14:23:55;47.07;36.92;57.33;;
72686;Laerm;61365;52.162;4.500;2023-02-28T14:32:35;47.13;36.68;56.76;;
72686;Laerm;61365;52.162;4.500;2023-02-28T14:37:54;47.22;37.16;55.90;;
72686;Laerm;61365;52.162;4.500;2023-02-28T14:40:30;46.95;37.39;56.81;;
72686;Laerm;61365;52.162;4.500;2023-02-28T14:43:02;46.02;37.92;59.03;;
72686;Laerm;61365;52.162;4.500;2023-02-28T14:45:36;45.72;36.99;58.30;;
72686;Laerm;61365;52.162;4.500;2023-02-28T14:48:09;45.59;36.46;57.87;;
72686;Laerm;61365;52.162;4.500;2023-02-28T14:50:37;45.81;37.24;58.39;;
72686;Laerm;61365;52.162;4.500;2023-02-28T14:53:16;45.74;37.27;57.74;;
72686;Laerm;61365;52.162;4.500;2023-02-28T14:55:46;45.73;36.38;61.30;;
72686;Laerm;61365;52.162;4.500;2023-02-28T14:58:30;45.69;36.86;57.52;;
72686;Laerm;61365;52.162;4.500;2023-02-28T15:01:01;45.53;36.57;58.21;;
72686;Laerm;61365;52.162;4.500;2023-02-28T15:03:39;45.66;36.74;57.85;;
72686;Laerm;61365;52.162;4.500;2023-02-28T15:06:16;45.78;36.07;58.24;;
72686;Laerm;61365;52.162;4.500;2023-02-28T15:08:45;45.72;36.79;58.11;;
72686;Laerm;61365;52.162;4.500;2023-02-28T15:11:17;45.74;35.83;63.27;;
72686;Laerm;61365;52.162;4.500;2023-02-28T15:13:54;45.74;36.93;58.24;;
72686;Laerm;61365;52.162;4.500;2023-02-28T15:16:32;45.94;37.36;59.69;;
72686;Laerm;61365;52.162;4.500;2023-02-28T15:19:23;45.66;37.74;56.99;;
72686;Laerm;61365;52.162;4.500;2023-02-28T15:22:01;45.80;37.11;57.68;;
72686;Laerm;61365;52.162;4.500;2023-02-28T15:24:46;45.85;33.62;63.20;;
72686;Laerm;61365;52.162;4.500;2023-02-28T15:27:21;45.95;37.45;60.82;;
72686;Laerm;61365;52.162;4.500;2023-02-28T15:29:54;45.89;37.02;61.95;;
72686;Laerm;61365;52.162;4.500;2023-02-28T15:32:30;46.44;37.32;57.94;;
72686;Laerm;61365;52.162;4.500;2023-02-28T15:34:59;47.09;35.92;56.12;;
72686;Laerm;61365;52.162;4.500;2023-02-28T15:37:54;47.13;36.90;56.36;;
72686;Laerm;61365;52.162;4.500;2023-02-28T15:40:40;47.11;36.60;56.84;;
72686;Laerm;61365;52.162;4.500;2023-02-28T15:43:27;47.07;37.36;57.00;;
72686;Laerm;61365;52.162;4.500;2023-02-28T15:46:10;46.96;35.64;61.94;;
72686;Laerm;61365;52.162;4.500;2023-02-28T15:48:53;46.93;34.84;62.08;;
72686;Laerm;61365;52.162;4.500;2023-02-28T15:51:36;46.98;36.51;57.02;;
72686;Laerm;61365;52.162;4.500;2023-02-28T15:54:14;46.85;37.03;56.28;;
72686;Laerm;61365;52.162;4.500;2023-02-28T15:56:51;46.97;36.94;59.37;;
72686;Laerm;61365;52.162;4.500;2023-02-28T15:59:22;47.15;36.93;58.25;;
72686;Laerm;61365;52.162;4.500;2023-02-28T16:04:54;47.03;36.11;56.39;;
72686;Laerm;61365;52.162;4.500;2023-02-28T16:07:22;47.24;37.49;56.98;;
72686;Laerm;61365;52.162;4.500;2023-02-28T16:09:48;47.02;37.14;56.61;;
72686;Laerm;61365;52.162;4.500;2023-02-28T16:12:14;46.97;37.07;59.34;;
72686;Laerm;61365;52.162;4.500;2023-02-28T16:14:41;47.16;36.60;56.26;;
72686;Laerm;61365;52.162;4.500;2023-02-28T16:17:21;47.02;36.20;62.33;;
72686;Laerm;61365;52.162;4.500;2023-02-28T16:19:47;47.11;37.01;57.03;;
72686;Laerm;61365;52.162;4.500;2023-02-28T16:22:14;46.86;36.09;61.60;;
72686;Laerm;61365;52.162;4.500;2023-02-28T16:24:40;46.96;36.86;60.50;;
72686;Laerm;61365;52.162;4.500;2023-02-28T16:27:20;46.85;36.97;56.19;;
72686;Laerm;61365;52.162;4.500;2023-02-28T16:29:48;46.96;36.37;56.22;;
72686;Laerm;61365;52.162;4.500;2023-02-28T16:32:15;46.93;36.75;56.85;;